sensor_id;sensor_type;location;lat;lon;timestamp;pressure;altitude;pressure_sealevel;temperature;humidity
13420;BME280;6781;58.440;15.470;2023-04-26T00:02:27;100051.88;;;5.79;100.00
13420;BME280;6781;58.440;15.470;2023-04-26T00:04:54;99954.69;;;5.21;100.00
13420;BME280;6781;58.440;15.470;2023-04-26T00:07:25;99963.97;;;5.11;100.00
13420;BME280;6781;58.440;15.470;2023-04-26T00:09:53;99901.25;;;4.88;100.00
13420;BME280;6781;58.440;15.470;2023-04-26T00:12:20;100070.50;;;5.96;100.00
13420;BME280;6781;58.440;15.470;2023-04-26T00:14:47;100005.56;;;5.29;100.00
13420;BME280;6781;58.440;15.470;2023-04-26T00:17:30;100070.59;;;5.69;100.00
13420;BME280;6781;58.440;15.470;2023-04-26T00:19:57;100018.03;;;5.35;100.00
13420;BME280;6781;58.440;15.470;2023-04-26T00:22:26;100080.69;;;5.72;100.00
13420;BME280;6781;58.440;15.470;2023-04-26T00:24:53;99973.22;;;5.13;100.00
13420;BME280;6781;58.440;15.470;2023-04-26T00:27:20;100078.31;;;5.69;100.00
13420;BME280;6781;58.440;15.470;2023-04-26T00:29:47;100038.59;;;5.35;100.00
13420;BME280;6781;58.440;15.470;2023-04-26T00:32:14;99920.81;;;4.51;100.00
13420;BME280;6781;58.440;15.470;2023-04-26T00:34:41;100104.94;;;5.55;100.00
13420;BME280;6781;58.440;15.470;2023-04-26T00:37:08;100088.34;;;5.34;100.00
13420;BME280;6781;58.440;15.470;2023-04-26T00:39:38;99839.78;;;3.95;100.00
13420;BME280;6781;58.440;15.470;2023-04-26T00:42:06;99947.84;;;4.56;100.00
13420;BME280;6781;58.440;15.470;2023-04-26T00:44:33;100098.44;;;5.37;100.00
13420;BME280;6781;58.440;15.470;2023-04-26T00:47:00;99834.91;;;3.77;100.00
13420;BME280;6781;58.440;15.470;2023-04-26T00:49:28;99931.56;;;4.43;100.00
13420;BME280;6781;58.440;15.470;2023-04-26T00:51:56;99952.69;;;4.34;100.00
13420;BME280;6781;58.440;15.470;2023-04-26T00:54:23;99916.28;;;4.15;100.00
13420;BME280;6781;58.440;15.470;2023-04-26T00:56:53;100124.88;;;5.39;100.00
13420;BME280;6781;58.440;15.470;2023-04-26T00:59:20;100126.66;;;5.51;100.00
13420;BME280;6781;58.440;15.470;2023-04-26T01:01:50;99826.34;;;3.64;100.00
13420;BME280;6781;58.440;15.470;2023-04-26T01:04:17;100135.06;;;5.40;100.00
13420;BME280;6781;58.440;15.470;2023-04-26T01:06:45;99882.69;;;3.78;100.00
13420;BME280;6781;58.440;15.470;2023-04-26T01:09:19;99846.66;;;3.40;100.00
13420;BME280;6781;58.440;15.470;2023-04-26T01:11:47;99870.47;;;3.55;100.00
13420;BME280;6781;58.440;15.470;2023-04-26T01:14:16;99926.50;;;3.61;100.00
13420;BME280;6781;58.440;15.470;2023-04-26T01:16:44;99972.53;;;4.18;100.00
13420;BME280;6781;58.440;15.470;2023-04-26T01:19:12;99874.94;;;3.39;100.00
13420;BME280;6781;58.440;15.470;2023-04-26T01:21:41;99898.84;;;3.66;100.00
13420;BME280;6781;58.440;15.470;2023-04-26T01:24:11;99846.53;;;3.42;100.00
13420;BME280;6781;58.440;15.470;2023-04-26T01:26:40;99901.13;;;3.71;100.00
13420;BME280;6781;58.440;15.470;2023-04-26T01:29:14;99872.13;;;3.56;100.00
13420;BME280;6781;58.440;15.470;2023-04-26T01:31:41;100145.19;;;5.16;100.00
13420;BME280;6781;58.440;15.470;2023-04-26T01:34:09;100105.97;;;5.00;100.00
13420;BME280;6781;58.440;15.470;2023-04-26T01:36:37;100126.19;;;5.32;100.00
13420;BME280;6781;58.440;15.470;2023-04-26T01:39:04;99864.50;;;3.42;100.00
13420;BME280;6781;58.440;15.470;2023-04-26T01:41:34;100096.53;;;5.01;100.00
13420;BME280;6781;58.440;15.470;2023-04-26T01:44:05;99856.06;;;3.40;100.00
13420;BME280;6781;58.440;15.470;2023-04-26T01:46:32;99993.91;;;4.45;100.00
13420;BME280;6781;58.440;15.470;2023-04-26T01:48:59;99975.56;;;4.24;100.00
13420;BME280;6781;58.440;15.470;2023-04-26T01:51:27;99954.25;;;4.10;100.00
13420;BME280;6781;58.440;15.470;2023-04-26T01:53:55;99989.88;;;4.41;100.00
13420;BME280;6781;58.440;15.470;2023-04-26T01:56:22;99845.03;;;3.52;100.00
13420;BME280;6781;58.440;15.470;2023-04-26T01:58:51;99935.56;;;4.08;100.00
13420;BME280;6781;58.440;15.470;2023-04-26T02:01:20;99967.31;;;4.19;100.00
13420;BME280;6781;58.440;15.470;2023-04-26T02:03:48;99852.00;;;3.50;100.00
13420;BME280;6781;58.440;15.470;2023-04-26T02:08:51;100057.22;;;4.86;100.00
13420;BME280;6781;58.440;15.470;2023-04-26T02:11:18;99872.25;;;3.81;100.00
13420;BME280;6781;58.440;15.470;2023-04-26T02:13:45;100019.16;;;4.66;100.00
13420;BME280;6781;58.440;15.470;2023-04-26T02:16:14;99907.41;;;3.79;100.00
13420;BME280;6781;58.440;15.470;2023-04-26T02:18:41;99997.41;;;4.44;100.00
13420;BME280;6781;58.440;15.470;2023-04-26T02:21:09;100019.81;;;4.82;100.00
13420;BME280;6781;58.440;15.470;2023-04-26T02:23:37;99950.13;;;4.34;100.00
13420;BME280;6781;58.440;15.470;2023-04-26T02:26:04;99764.78;;;3.24;100.00
13420;BME280;6781;58.440;15.470;2023-04-26T02:28:31;99758.13;;;3.08;100.00
13420;BME280;6781;58.440;15.470;2023-04-26T02:30:58;100027.19;;;4.74;100.00
13420;BME280;6781;58.440;15.470;2023-04-26T02:33:27;99833.13;;;3.51;100.00
13420;BME280;6781;58.440;15.470;2023-04-26T02:35:54;99742.50;;;2.98;100.00
13420;BME280;6781;58.440;15.470;2023-04-26T02:38:22;99857.53;;;3.71;100.00
13420;BME280;6781;58.440;15.470;2023-04-26T02:40:57;99761.44;;;3.10;100.00
13420;BME280;6781;58.440;15.470;2023-04-26T02:43:24;99751.84;;;2.85;100.00
13420;BME280;6781;58.440;15.470;2023-04-26T02:45:55;99821.31;;;3.21;100.00
13420;BME280;6781;58.440;15.470;2023-04-26T02:49:05;99970.22;;;4.01;100.00
13420;BME280;6781;58.440;15.470;2023-04-26T02:51:33;100018.13;;;4.41;100.00
13420;BME280;6781;58.440;15.470;2023-04-26T02:54:00;99774.41;;;3.21;100.00
13420;BME280;6781;58.440;15.470;2023-04-26T02:56:27;100024.41;;;4.77;100.00
13420;BME280;6781;58.440;15.470;2023-04-26T02:58:54;99912.03;;;4.01;100.00
13420;BME280;6781;58.440;15.470;2023-04-26T03:01:21;99891.75;;;3.84;100.00
13420;BME280;6781;58.440;15.470;2023-04-26T03:03:51;99988.44;;;4.37;100.00
13420;BME280;6781;58.440;15.470;2023-04-26T03:06:20;99787.84;;;3.10;100.00
13420;BME280;6781;58.440;15.470;2023-04-26T03:08:47;99771.94;;;3.19;100.00
13420;BME280;6781;58.440;15.470;2023-04-26T03:11:14;99747.56;;;3.26;100.00
13420;BME280;6781;58.440;15.470;2023-04-26T03:13:42;99923.84;;;4.04;100.00
13420;BME280;6781;58.440;15.470;2023-04-26T03:16:09;99911.09;;;4.29;100.00
13420;BME280;6781;58.440;15.470;2023-04-26T03:18:36;99690.03;;;2.91;100.00
13420;BME280;6781;58.440;15.470;2023-04-26T03:21:03;99879.16;;;3.93;100.00
13420;BME280;6781;58.440;15.470;2023-04-26T03:23:33;99888.13;;;4.01;100.00
13420;BME280;6781;58.440;15.470;2023-04-26T03:26:00;99775.28;;;3.34;100.00
13420;BME280;6781;58.440;15.470;2023-04-26T03:28:28;99723.66;;;2.99;100.00
13420;BME280;6781;58.440;15.470;2023-04-26T03:30:56;99722.78;;;2.86;100.00
13420;BME280;6781;58.440;15.470;2023-04-26T03:33:25;99936.50;;;3.92;100.00
13420;BME280;6781;58.440;15.470;2023-04-26T03:36:04;99700.28;;;2.91;100.00
13420;BME280;6781;58.440;15.470;2023-04-26T03:38:42;99735.09;;;2.93;100.00
13420;BME280;6781;58.440;15.470;2023-04-26T03:41:11;99740.31;;;3.06;100.00
13420;BME280;6781;58.440;15.470;2023-04-26T03:43:38;99888.94;;;3.74;100.00
13420;BME280;6781;58.440;15.470;2023-04-26T03:46:05;99752.94;;;2.95;100.00
13420;BME280;6781;58.440;15.470;2023-04-26T03:48:32;99804.75;;;3.27;100.00
13420;BME280;6781;58.440;15.470;2023-04-26T03:51:00;99865.84;;;3.74;100.00
13420;BME280;6781;58.440;15.470;2023-04-26T03:53:27;99890.25;;;3.94;100.00
13420;BME280;6781;58.440;15.470;2023-04-26T03:55:56;99882.59;;;3.80;100.00
13420;BME280;6781;58.440;15.470;2023-04-26T03:58:24;99715.81;;;2.88;100.00
13420;BME280;6781;58.440;15.470;2023-04-26T04:00:54;99982.00;;;4.44;100.00
13420;BME280;6781;58.440;15.470;2023-04-26T04:03:22;99721.22;;;2.98;100.00
13420;BME280;6781;58.440;15.470;2023-04-26T04:05:49;99972.69;;;4.56;100.00
13420;BME280;6781;58.440;15.470;2023-04-26T04:08:16;99962.72;;;4.51;100.00
13420;BME280;6781;58.440;15.470;2023-04-26T04:10:43;99855.41;;;3.77;100.00
13420;BME280;6781;58.440;15.470;2023-04-26T04:13:13;99888.22;;;3.99;100.00
13420;BME280;6781;58.440;15.470;2023-04-26T04:15:40;99845.66;;;3.55;100.00
13420;BME280;6781;58.440;15.470;2023-04-26T04:18:07;99972.88;;;4.53;100.00
13420;BME280;6781;58.440;15.470;2023-04-26T04:20:34;99719.31;;;2.87;100.00
13420;BME280;6781;58.440;15.470;2023-04-26T04:23:01;99733.66;;;2.75;100.00
13420;BME280;6781;58.440;15.470;2023-04-26T04:25:31;99722.41;;;2.78;100.00
13420;BME280;6781;58.440;15.470;2023-04-26T04:27:59;99725.16;;;2.75;100.00
13420;BME280;6781;58.440;15.470;2023-04-26T04:30:27;99964.09;;;4.30;100.00
13420;BME280;6781;58.440;15.470;2023-04-26T04:32:55;99982.38;;;4.38;100.00
13420;BME280;6781;58.440;15.470;2023-04-26T04:35:23;99823.72;;;3.51;100.00
13420;BME280;6781;58.440;15.470;2023-04-26T04:37:54;99746.53;;;2.88;100.00
13420;BME280;6781;58.440;15.470;2023-04-26T04:40:41;99714.75;;;2.78;100.00
13420;BME280;6781;58.440;15.470;2023-04-26T04:43:12;99690.81;;;2.65;100.00
13420;BME280;6781;58.440;15.470;2023-04-26T04:58:21;99901.88;;;4.00;100.00
13420;BME280;6781;58.440;15.470;2023-04-26T05:04:24;99989.31;;;4.50;100.00
13420;BME280;6781;58.440;15.470;2023-04-26T05:07:07;99731.72;;;2.93;100.00
13420;BME280;6781;58.440;15.470;2023-04-26T05:09:37;99869.72;;;3.94;100.00
13420;BME280;6781;58.440;15.470;2023-04-26T05:14:46;99798.78;;;3.41;100.00
13420;BME280;6781;58.440;15.470;2023-04-26T05:17:13;99949.59;;;4.56;100.00
13420;BME280;6781;58.440;15.470;2023-04-26T05:19:43;99845.81;;;3.93;100.00
13420;BME280;6781;58.440;15.470;2023-04-26T05:22:23;99802.69;;;3.73;100.00
13420;BME280;6781;58.440;15.470;2023-04-26T05:24:49;99668.25;;;2.98;100.00
13420;BME280;6781;58.440;15.470;2023-04-26T05:27:17;99879.94;;;4.48;100.00
13420;BME280;6781;58.440;15.470;2023-04-26T05:29:44;99835.03;;;4.28;100.00
13420;BME280;6781;58.440;15.470;2023-04-26T05:32:12;99833.31;;;4.41;100.00
13420;BME280;6781;58.440;15.470;2023-04-26T05:34:41;99674.44;;;3.48;100.00
13420;BME280;6781;58.440;15.470;2023-04-26T05:37:12;99904.75;;;4.87;100.00
13420;BME280;6781;58.440;15.470;2023-04-26T05:39:42;99778.34;;;4.06;100.00
13420;BME280;6781;58.440;15.470;2023-04-26T05:42:15;99673.84;;;3.57;100.00
13420;BME280;6781;58.440;15.470;2023-04-26T05:44:42;99713.00;;;3.59;100.00
13420;BME280;6781;58.440;15.470;2023-04-26T05:47:18;99647.38;;;3.31;100.00
13420;BME280;6781;58.440;15.470;2023-04-26T05:49:58;99668.81;;;3.43;100.00
13420;BME280;6781;58.440;15.470;2023-04-26T05:52:28;99700.91;;;3.61;100.00
13420;BME280;6781;58.440;15.470;2023-04-26T05:55:18;99658.47;;;3.57;100.00
13420;BME280;6781;58.440;15.470;2023-04-26T06:05:01;99668.94;;;3.79;100.00
13420;BME280;6781;58.440;15.470;2023-04-26T06:07:29;99867.66;;;5.04;100.00
13420;BME280;6781;58.440;15.470;2023-04-26T06:09:56;99898.34;;;5.31;100.00
13420;BME280;6781;58.440;15.470;2023-04-26T06:12:23;99888.84;;;5.44;100.00
13420;BME280;6781;58.440;15.470;2023-04-26T06:14:51;99648.66;;;3.76;100.00
13420;BME280;6781;58.440;15.470;2023-04-26T06:17:18;99681.28;;;4.12;100.00
13420;BME280;6781;58.440;15.470;2023-04-26T06:19:48;99867.06;;;5.37;100.00
13420;BME280;6781;58.440;15.470;2023-04-26T06:22:19;99659.84;;;3.88;100.00
13420;BME280;6781;58.440;15.470;2023-04-26T06:24:46;99788.56;;;4.71;100.00
13420;BME280;6781;58.440;15.470;2023-04-26T06:27:13;99858.19;;;5.17;100.00
13420;BME280;6781;58.440;15.470;2023-04-26T06:29:41;99696.88;;;4.09;100.00
13420;BME280;6781;58.440;15.470;2023-04-26T06:32:09;99748.09;;;4.62;100.00
13420;BME280;6781;58.440;15.470;2023-04-26T06:34:37;99883.97;;;5.15;100.00
13420;BME280;6781;58.440;15.470;2023-04-26T06:37:04;99615.13;;;3.79;100.00
13420;BME280;6781;58.440;15.470;2023-04-26T06:39:33;99792.88;;;4.83;100.00
13420;BME280;6781;58.440;15.470;2023-04-26T06:42:00;99612.34;;;4.08;100.00
13420;BME280;6781;58.440;15.470;2023-04-26T06:44:28;99754.09;;;4.99;100.00
13420;BME280;6781;58.440;15.470;2023-04-26T06:46:55;99833.50;;;5.51;100.00
13420;BME280;6781;58.440;15.470;2023-04-26T06:49:23;99649.22;;;4.43;100.00
13420;BME280;6781;58.440;15.470;2023-04-26T06:51:50;99794.22;;;5.49;100.00
13420;BME280;6781;58.440;15.470;2023-04-26T06:54:18;99759.91;;;5.37;100.00
13420;BME280;6781;58.440;15.470;2023-04-26T06:56:46;99830.78;;;5.65;100.00
13420;BME280;6781;58.440;15.470;2023-04-26T06:59:14;99648.47;;;4.67;100.00
13420;BME280;6781;58.440;15.470;2023-04-26T07:01:41;99743.50;;;5.51;100.00
13420;BME280;6781;58.440;15.470;2023-04-26T07:04:11;99601.81;;;4.73;100.00
13420;BME280;6781;58.440;15.470;2023-04-26T07:06:40;99686.69;;;4.95;100.00
13420;BME280;6781;58.440;15.470;2023-04-26T07:09:07;99576.72;;;4.52;100.00
13420;BME280;6781;58.440;15.470;2023-04-26T07:11:35;99714.91;;;5.32;100.00
13420;BME280;6781;58.440;15.470;2023-04-26T07:14:03;99807.72;;;5.87;100.00
13420;BME280;6781;58.440;15.470;2023-04-26T07:16:30;99585.53;;;4.61;100.00
13420;BME280;6781;58.440;15.470;2023-04-26T07:18:59;99714.38;;;5.15;100.00
13420;BME280;6781;58.440;15.470;2023-04-26T07:21:27;99703.28;;;5.15;100.00
13420;BME280;6781;58.440;15.470;2023-04-26T07:23:54;99728.69;;;5.31;100.00
13420;BME280;6781;58.440;15.470;2023-04-26T07:26:25;99656.19;;;5.14;100.00
13420;BME280;6781;58.440;15.470;2023-04-26T07:28:53;99594.97;;;5.08;100.00
13420;BME280;6781;58.440;15.470;2023-04-26T07:31:21;99599.63;;;5.03;100.00
13420;BME280;6781;58.440;15.470;2023-04-26T07:33:48;99650.03;;;5.28;100.00
13420;BME280;6781;58.440;15.470;2023-04-26T07:36:15;99657.50;;;5.55;100.00
13420;BME280;6781;58.440;15.470;2023-04-26T07:38:43;99568.78;;;5.03;100.00
13420;BME280;6781;58.440;15.470;2023-04-26T07:41:11;99564.53;;;4.91;100.00
13420;BME280;6781;58.440;15.470;2023-04-26T07:43:40;99681.38;;;5.68;100.00
13420;BME280;6781;58.440;15.470;2023-04-26T07:46:08;99653.53;;;5.62;100.00
13420;BME280;6781;58.440;15.470;2023-04-26T07:48:36;99613.69;;;5.68;100.00
13420;BME280;6781;58.440;15.470;2023-04-26T07:51:06;99733.13;;;6.23;100.00
13420;BME280;6781;58.440;15.470;2023-04-26T07:53:34;99532.53;;;5.19;100.00
13420;BME280;6781;58.440;15.470;2023-04-26T07:56:03;99613.84;;;5.88;100.00
13420;BME280;6781;58.440;15.470;2023-04-26T07:58:31;99615.88;;;6.07;100.00
13420;BME280;6781;58.440;15.470;2023-04-26T08:00:58;99693.81;;;6.43;100.00
13420;BME280;6781;58.440;15.470;2023-04-26T08:03:28;99596.69;;;6.00;100.00
13420;BME280;6781;58.440;15.470;2023-04-26T08:05:56;99741.16;;;7.18;100.00
13420;BME280;6781;58.440;15.470;2023-04-26T08:08:24;99636.06;;;6.68;100.00
13420;BME280;6781;58.440;15.470;2023-04-26T08:10:51;99500.41;;;6.03;100.00
13420;BME280;6781;58.440;15.470;2023-04-26T08:13:18;99629.75;;;6.61;100.00
13420;BME280;6781;58.440;15.470;2023-04-26T08:15:45;99556.66;;;6.73;100.00
13420;BME280;6781;58.440;15.470;2023-04-26T08:18:13;99484.94;;;6.57;100.00
13420;BME280;6781;58.440;15.470;2023-04-26T08:20:40;99474.16;;;6.63;100.00
13420;BME280;6781;58.440;15.470;2023-04-26T08:23:09;99687.59;;;7.96;100.00
13420;BME280;6781;58.440;15.470;2023-04-26T08:25:36;99619.22;;;7.28;100.00
13420;BME280;6781;58.440;15.470;2023-04-26T08:28:03;99478.09;;;6.46;100.00
13420;BME280;6781;58.440;15.470;2023-04-26T08:30:34;99660.88;;;7.44;100.00
13420;BME280;6781;58.440;15.470;2023-04-26T08:33:02;99447.16;;;6.14;100.00
13420;BME280;6781;58.440;15.470;2023-04-26T08:35:29;99677.75;;;8.10;100.00
13420;BME280;6781;58.440;15.470;2023-04-26T08:37:59;99566.50;;;7.62;100.00
13420;BME280;6781;58.440;15.470;2023-04-26T08:40:27;99593.84;;;7.95;100.00
13420;BME280;6781;58.440;15.470;2023-04-26T08:42:56;99467.72;;;7.20;100.00
13420;BME280;6781;58.440;15.470;2023-04-26T08:45:23;99441.72;;;7.33;100.00
13420;BME280;6781;58.440;15.470;2023-04-26T08:47:52;99452.88;;;7.12;100.00
13420;BME280;6781;58.440;15.470;2023-04-26T08:50:23;99467.41;;;7.13;100.00
13420;BME280;6781;58.440;15.470;2023-04-26T08:52:51;99439.03;;;6.83;100.00
13420;BME280;6781;58.440;15.470;2023-04-26T08:55:19;99451.72;;;6.22;100.00
13420;BME280;6781;58.440;15.470;2023-04-26T08:57:49;99654.72;;;8.28;100.00
13420;BME280;6781;58.440;15.470;2023-04-26T09:00:17;99526.69;;;7.86;100.00
13420;BME280;6781;58.440;15.470;2023-04-26T09:02:49;99574.53;;;8.30;100.00
13420;BME280;6781;58.440;15.470;2023-04-26T09:05:21;99439.31;;;7.41;100.00
13420;BME280;6781;58.440;15.470;2023-04-26T09:07:49;99549.09;;;8.25;100.00
13420;BME280;6781;58.440;15.470;2023-04-26T09:10:19;99501.69;;;7.86;100.00
13420;BME280;6781;58.440;15.470;2023-04-26T09:12:50;99478.34;;;7.97;100.00
13420;BME280;6781;58.440;15.470;2023-04-26T09:15:21;99597.78;;;9.08;100.00
13420;BME280;6781;58.440;15.470;2023-04-26T09:17:49;99411.19;;;7.68;100.00
13420;BME280;6781;58.440;15.470;2023-04-26T09:20:23;99639.84;;;9.10;100.00
13420;BME280;6781;58.440;15.470;2023-04-26T09:22:52;99657.81;;;9.22;100.00
13420;BME280;6781;58.440;15.470;2023-04-26T09:25:29;99621.03;;;9.37;100.00
13420;BME280;6781;58.440;15.470;2023-04-26T09:28:02;99402.25;;;7.92;100.00
13420;BME280;6781;58.440;15.470;2023-04-26T09:30:39;99408.00;;;8.05;100.00
13420;BME280;6781;58.440;15.470;2023-04-26T09:33:12;99649.63;;;9.65;100.00
13420;BME280;6781;58.440;15.470;2023-04-26T09:35:41;99523.59;;;8.99;100.00
13420;BME280;6781;58.440;15.470;2023-04-26T09:38:10;99498.13;;;9.04;100.00
13420;BME280;6781;58.440;15.470;2023-04-26T09:40:39;99587.38;;;10.03;100.00
13420;BME280;6781;58.440;15.470;2023-04-26T09:43:14;99421.78;;;9.10;100.00
13420;BME280;6781;58.440;15.470;2023-04-26T09:45:44;99463.03;;;10.31;100.00
13420;BME280;6781;58.440;15.470;2023-04-26T09:48:16;99511.44;;;10.66;100.00
13420;BME280;6781;58.440;15.470;2023-04-26T09:50:45;99521.38;;;10.70;100.00
13420;BME280;6781;58.440;15.470;2023-04-26T09:53:27;99399.16;;;10.48;100.00
13420;BME280;6781;58.440;15.470;2023-04-26T09:55:57;99348.50;;;10.27;100.00
13420;BME280;6781;58.440;15.470;2023-04-26T09:58:39;99527.00;;;11.01;100.00
13420;BME280;6781;58.440;15.470;2023-04-26T10:01:07;99347.41;;;9.49;100.00
13420;BME280;6781;58.440;15.470;2023-04-26T10:03:38;99348.28;;;9.03;100.00
13420;BME280;6781;58.440;15.470;2023-04-26T10:06:07;99454.13;;;9.24;100.00
13420;BME280;6781;58.440;15.470;2023-04-26T10:08:35;99424.91;;;8.47;100.00
13420;BME280;6781;58.440;15.470;2023-04-26T10:11:03;99359.63;;;8.55;100.00
13420;BME280;6781;58.440;15.470;2023-04-26T10:13:37;99439.25;;;8.79;100.00
13420;BME280;6781;58.440;15.470;2023-04-26T10:16:04;99377.69;;;9.02;100.00
13420;BME280;6781;58.440;15.470;2023-04-26T10:18:36;99378.31;;;9.23;100.00
13420;BME280;6781;58.440;15.470;2023-04-26T10:21:07;99346.16;;;8.89;100.00
13420;BME280;6781;58.440;15.470;2023-04-26T10:23:37;99439.22;;;9.72;100.00
13420;BME280;6781;58.440;15.470;2023-04-26T10:26:06;99393.72;;;9.70;100.00
13420;BME280;6781;58.440;15.470;2023-04-26T10:28:55;99454.78;;;10.18;100.00
13420;BME280;6781;58.440;15.470;2023-04-26T10:31:23;99387.47;;;9.45;100.00
13420;BME280;6781;58.440;15.470;2023-04-26T10:34:17;99407.72;;;9.50;100.00
13420;BME280;6781;58.440;15.470;2023-04-26T10:37:07;99472.41;;;10.50;100.00
13420;BME280;6781;58.440;15.470;2023-04-26T10:39:43;99376.72;;;10.30;100.00
13420;BME280;6781;58.440;15.470;2023-04-26T10:42:21;99483.75;;;10.03;100.00
13420;BME280;6781;58.440;15.470;2023-04-26T10:44:56;99491.44;;;10.40;100.00
13420;BME280;6781;58.440;15.470;2023-04-26T10:47:31;99487.91;;;9.96;100.00
13420;BME280;6781;58.440;15.470;2023-04-26T10:50:06;99341.28;;;8.48;100.00
13420;BME280;6781;58.440;15.470;2023-04-26T10:52:34;99474.91;;;8.75;100.00
13420;BME280;6781;58.440;15.470;2023-04-26T10:55:01;99416.03;;;8.31;100.00
13420;BME280;6781;58.440;15.470;2023-04-26T10:57:48;99497.78;;;8.61;100.00
13420;BME280;6781;58.440;15.470;2023-04-26T11:00:29;99587.00;;;9.23;100.00
13420;BME280;6781;58.440;15.470;2023-04-26T11:03:07;99346.63;;;6.69;100.00
13420;BME280;6781;58.440;15.470;2023-04-26T11:05:56;99395.25;;;6.83;100.00
13420;BME280;6781;58.440;15.470;2023-04-26T11:08:27;99374.47;;;7.45;100.00
13420;BME280;6781;58.440;15.470;2023-04-26T11:11:06;99633.00;;;9.67;100.00
13420;BME280;6781;58.440;15.470;2023-04-26T11:13:37;99419.31;;;8.42;100.00
13420;BME280;6781;58.440;15.470;2023-04-26T11:16:07;99404.19;;;8.19;100.00
13420;BME280;6781;58.440;15.470;2023-04-26T11:18:47;99405.81;;;8.20;100.00
13420;BME280;6781;58.440;15.470;2023-04-26T11:21:14;99399.53;;;7.93;100.00
13420;BME280;6781;58.440;15.470;2023-04-26T11:23:52;99530.44;;;8.62;100.00
13420;BME280;6781;58.440;15.470;2023-04-26T11:26:19;99498.41;;;8.24;100.00
13420;BME280;6781;58.440;15.470;2023-04-26T11:28:51;99410.03;;;8.01;100.00
13420;BME280;6781;58.440;15.470;2023-04-26T11:31:22;99491.53;;;8.54;100.00
13420;BME280;6781;58.440;15.470;2023-04-26T11:34:08;99530.69;;;8.97;100.00
13420;BME280;6781;58.440;15.470;2023-04-26T11:36:47;99360.97;;;7.92;100.00
13420;BME280;6781;58.440;15.470;2023-04-26T11:39:14;99642.03;;;9.34;100.00
13420;BME280;6781;58.440;15.470;2023-04-26T11:41:42;99493.44;;;8.52;100.00
13420;BME280;6781;58.440;15.470;2023-04-26T11:44:10;99410.97;;;8.00;100.00
13420;BME280;6781;58.440;15.470;2023-04-26T11:46:39;99481.47;;;8.51;100.00
13420;BME280;6781;58.440;15.470;2023-04-26T11:49:07;99415.91;;;7.63;100.00
13420;BME280;6781;58.440;15.470;2023-04-26T11:51:37;99388.38;;;7.73;100.00
13420;BME280;6781;58.440;15.470;2023-04-26T11:54:04;99523.50;;;8.62;100.00
13420;BME280;6781;58.440;15.470;2023-04-26T11:56:31;99399.44;;;8.14;100.00
13420;BME280;6781;58.440;15.470;2023-04-26T11:58:58;99412.34;;;8.04;100.00
13420;BME280;6781;58.440;15.470;2023-04-26T12:01:27;99419.66;;;7.90;100.00
13420;BME280;6781;58.440;15.470;2023-04-26T12:03:57;99409.31;;;7.40;100.00
13420;BME280;6781;58.440;15.470;2023-04-26T12:06:28;99501.16;;;8.80;100.00
13420;BME280;6781;58.440;15.470;2023-04-26T12:08:57;99495.81;;;9.11;100.00
13420;BME280;6781;58.440;15.470;2023-04-26T12:11:25;99636.84;;;9.25;99.17
13420;BME280;6781;58.440;15.470;2023-04-26T12:13:57;99538.16;;;9.00;99.93
13420;BME280;6781;58.440;15.470;2023-04-26T12:16:26;99414.50;;;8.67;100.00
13420;BME280;6781;58.440;15.470;2023-04-26T12:18:55;99427.00;;;8.81;100.00
13420;BME280;6781;58.440;15.470;2023-04-26T12:21:28;99451.72;;;9.12;100.00
13420;BME280;6781;58.440;15.470;2023-04-26T12:23:56;99416.22;;;8.95;94.97
13420;BME280;6781;58.440;15.470;2023-04-26T12:26:41;99402.31;;;8.50;93.00
13420;BME280;6781;58.440;15.470;2023-04-26T12:29:09;99584.69;;;9.20;92.75
13420;BME280;6781;58.440;15.470;2023-04-26T12:31:36;99432.31;;;8.12;97.54
13420;BME280;6781;58.440;15.470;2023-04-26T12:34:05;99554.09;;;8.86;99.74
13420;BME280;6781;58.440;15.470;2023-04-26T12:36:36;99583.47;;;8.85;99.57
13420;BME280;6781;58.440;15.470;2023-04-26T12:39:05;99449.03;;;8.08;100.00
13420;BME280;6781;58.440;15.470;2023-04-26T12:41:35;99524.69;;;8.48;97.86
13420;BME280;6781;58.440;15.470;2023-04-26T12:44:03;99583.16;;;9.46;100.00
13420;BME280;6781;58.440;15.470;2023-04-26T12:46:31;99425.44;;;7.72;96.01
13420;BME280;6781;58.440;15.470;2023-04-26T12:49:05;99450.41;;;8.22;97.35
13420;BME280;6781;58.440;15.470;2023-04-26T12:51:32;99728.50;;;9.32;99.02
13420;BME280;6781;58.440;15.470;2023-04-26T12:53:59;99525.78;;;8.94;100.00
13420;BME280;6781;58.440;15.470;2023-04-26T12:56:28;99622.84;;;9.93;100.00
13420;BME280;6781;58.440;15.470;2023-04-26T12:58:55;99554.22;;;9.79;99.37
13420;BME280;6781;58.440;15.470;2023-04-26T13:01:25;99405.22;;;8.93;98.49
13420;BME280;6781;58.440;15.470;2023-04-26T13:03:53;99460.25;;;8.37;98.45
13420;BME280;6781;58.440;15.470;2023-04-26T13:06:22;99626.78;;;9.12;100.00
13420;BME280;6781;58.440;15.470;2023-04-26T13:08:52;99487.22;;;8.14;100.00
13420;BME280;6781;58.440;15.470;2023-04-26T13:11:19;99514.63;;;8.45;100.00
13420;BME280;6781;58.440;15.470;2023-04-26T13:13:49;99505.88;;;7.47;100.00
13420;BME280;6781;58.440;15.470;2023-04-26T13:16:16;99578.03;;;8.19;100.00
13420;BME280;6781;58.440;15.470;2023-04-26T13:18:44;99522.47;;;7.54;100.00
13420;BME280;6781;58.440;15.470;2023-04-26T13:21:13;99715.78;;;9.09;100.00
13420;BME280;6781;58.440;15.470;2023-04-26T13:23:42;99478.31;;;7.47;100.00
13420;BME280;6781;58.440;15.470;2023-04-26T13:26:10;99570.44;;;8.27;100.00
13420;BME280;6781;58.440;15.470;2023-04-26T13:28:38;99534.22;;;8.77;100.00
13420;BME280;6781;58.440;15.470;2023-04-26T13:31:08;99505.22;;;9.02;100.00
13420;BME280;6781;58.440;15.470;2023-04-26T13:33:36;99487.66;;;8.96;100.00
13420;BME280;6781;58.440;15.470;2023-04-26T13:36:03;99619.13;;;9.49;98.60
13420;BME280;6781;58.440;15.470;2023-04-26T13:38:33;99700.78;;;10.09;98.02
13420;BME280;6781;58.440;15.470;2023-04-26T13:41:14;99436.81;;;8.10;96.76
13420;BME280;6781;58.440;15.470;2023-04-26T13:43:42;99703.34;;;10.38;99.45